createdAt,value
2023-01-18T00:01:06.843Z,0.50
2023-01-18T00:03:34.976Z,0.60
2023-01-18T00:06:03.643Z,0.60
2023-01-18T00:08:32.430Z,0.60
2023-01-18T00:11:08.394Z,0.60
2023-01-18T00:13:35.940Z,0.60
2023-01-18T00:16:04.990Z,0.60
2023-01-18T00:18:33.141Z,0.50
2023-01-18T00:21:04.505Z,0.60
2023-01-18T00:23:32.110Z,0.60
2023-01-18T00:26:08.656Z,0.60
2023-01-18T00:28:36.249Z,0.70
2023-01-18T00:31:09.478Z,0.60
2023-01-18T00:33:36.548Z,0.70
2023-01-18T00:36:05.572Z,0.70
2023-01-18T00:38:32.645Z,0.70
2023-01-18T00:40:59.667Z,0.80
2023-01-18T00:43:41.864Z,0.70
2023-01-18T00:46:11.467Z,0.70
2023-01-18T00:48:39.873Z,0.70
2023-01-18T00:51:09.365Z,0.70
2023-01-18T00:53:38.257Z,0.70
2023-01-18T00:56:10.288Z,0.60
2023-01-18T00:58:37.703Z,0.60
2023-01-18T01:01:10.234Z,0.60
2023-01-18T01:03:56.819Z,0.60
2023-01-18T01:06:44.644Z,0.60
2023-01-18T01:09:19.998Z,0.70
2023-01-18T01:12:06.974Z,0.70
2023-01-18T01:14:59.384Z,0.60
2023-01-18T01:17:46.294Z,0.60
2023-01-18T01:20:32.041Z,0.60
2023-01-18T01:23:30.789Z,0.60
2023-01-18T01:26:24.147Z,0.60
2023-01-18T01:28:52.753Z,0.60
2023-01-18T01:31:20.497Z,0.60
2023-01-18T01:33:50.578Z,0.70
2023-01-18T01:36:20.939Z,0.70
2023-01-18T01:38:48.363Z,0.60
2023-01-18T01:41:19.832Z,0.60
2023-01-18T01:43:52.845Z,0.60
2023-01-18T01:46:22.939Z,0.60
2023-01-18T01:48:51.032Z,0.60
2023-01-18T01:51:20.193Z,0.60
2023-01-18T01:53:49.200Z,0.50
2023-01-18T01:56:17.174Z,0.60
2023-01-18T01:58:46.501Z,0.60
2023-01-18T02:01:13.897Z,0.60
2023-01-18T02:03:42.679Z,0.60
2023-01-18T02:06:31.931Z,0.60
2023-01-18T02:09:01.126Z,0.60
2023-01-18T02:11:29.468Z,0.60
2023-01-18T02:14:01.400Z,0.60
2023-01-18T02:16:49.857Z,0.50
2023-01-18T02:19:22.725Z,0.50
2023-01-18T02:22:02.873Z,0.60
2023-01-18T02:25:28.493Z,0.60
2023-01-18T02:28:09.764Z,0.60
2023-01-18T02:31:02.626Z,0.60
2023-01-18T02:33:33.206Z,0.60
2023-01-18T02:36:02.996Z,0.60
2023-01-18T02:38:38.957Z,0.60
2023-01-18T02:42:01.037Z,0.60
2023-01-18T02:44:55.739Z,0.60
2023-01-18T02:47:24.712Z,0.70
2023-01-18T02:49:52.704Z,0.60
2023-01-18T02:52:42.587Z,0.60
2023-01-18T02:55:21.898Z,0.60
2023-01-18T02:57:49.215Z,0.70
2023-01-18T03:00:19.172Z,0.60
2023-01-18T03:02:49.287Z,0.60
2023-01-18T03:05:17.825Z,0.60
2023-01-18T03:07:58.411Z,0.50
2023-01-18T03:10:31.327Z,0.50
2023-01-18T03:13:05.166Z,0.60
2023-01-18T03:15:40.955Z,0.60
2023-01-18T03:19:00.282Z,0.60
2023-01-18T03:21:36.633Z,0.60
2023-01-18T03:24:07.469Z,1.50
2023-01-18T03:26:42.927Z,0.60
2023-01-18T03:29:31.521Z,0.60
2023-01-18T03:32:28.958Z,0.60
2023-01-18T03:35:12.018Z,0.70
2023-01-18T03:37:42.609Z,0.60
2023-01-18T03:40:19.868Z,0.60
2023-01-18T03:43:22.099Z,0.60
2023-01-18T03:45:50.073Z,0.60
2023-01-18T03:48:17.391Z,0.70
2023-01-18T03:51:06.885Z,0.70
2023-01-18T03:53:39.394Z,0.70
2023-01-18T03:56:30.372Z,0.80
2023-01-18T03:59:03.114Z,0.70
2023-01-18T04:01:30.962Z,0.60
2023-01-18T04:03:58.149Z,0.70
2023-01-18T04:06:26.046Z,0.60
2023-01-18T04:08:53.500Z,0.70
2023-01-18T04:11:20.579Z,0.70
2023-01-18T04:13:47.687Z,0.70
2023-01-18T04:16:14.881Z,0.70
2023-01-18T04:18:41.990Z,0.60
2023-01-18T04:21:09.312Z,0.70
2023-01-18T04:23:37.225Z,0.70
2023-01-18T04:26:04.599Z,0.60
2023-01-18T04:28:33.862Z,0.70
2023-01-18T04:31:01.175Z,0.70
2023-01-18T04:33:28.407Z,0.80
2023-01-18T04:35:55.744Z,0.80
2023-01-18T04:38:23.509Z,0.80
2023-01-18T04:40:50.933Z,0.80
2023-01-18T04:43:18.202Z,0.70
2023-01-18T04:45:54.457Z,0.70
2023-01-18T04:48:21.794Z,0.80
2023-01-18T04:50:48.872Z,0.70
2023-01-18T04:53:17.646Z,0.70
2023-01-18T04:55:45.545Z,0.70
2023-01-18T04:58:12.671Z,0.70
2023-01-18T05:00:40.110Z,0.70
2023-01-18T05:03:12.026Z,0.60
2023-01-18T05:05:39.534Z,0.70
2023-01-18T05:08:06.587Z,0.70
2023-01-18T05:10:33.882Z,0.70
2023-01-18T05:13:01.536Z,0.70
2023-01-18T05:15:28.822Z,0.80
2023-01-18T05:18:29.240Z,0.80
2023-01-18T05:20:56.423Z,0.80
2023-01-18T05:23:23.803Z,0.80
2023-01-18T05:25:55.943Z,0.80
2023-01-18T05:28:28.039Z,0.90
2023-01-18T05:30:55.478Z,0.80
2023-01-18T05:33:23.907Z,0.80
2023-01-18T05:35:55.159Z,0.80
2023-01-18T05:38:23.197Z,0.80
2023-01-18T05:40:52.965Z,0.80
2023-01-18T05:43:22.161Z,0.80
2023-01-18T05:45:49.494Z,0.80
2023-01-18T05:48:18.127Z,0.80
2023-01-18T05:50:47.130Z,0.80
2023-01-18T05:53:17.345Z,0.80
2023-01-18T05:55:53.308Z,0.80
2023-01-18T05:58:20.572Z,0.70
2023-01-18T06:00:47.762Z,0.70
2023-01-18T06:03:14.947Z,0.70
2023-01-18T06:05:41.999Z,0.70
2023-01-18T06:08:09.076Z,0.70
2023-01-18T06:10:36.238Z,0.70
2023-01-18T06:13:03.315Z,0.70
2023-01-18T06:15:30.443Z,0.70
2023-01-18T06:17:58.120Z,1.20
2023-01-18T06:20:25.671Z,0.80
2023-01-18T06:22:52.828Z,0.70
2023-01-18T06:25:20.372Z,0.80
2023-01-18T06:27:47.643Z,0.70
2023-01-18T06:30:15.224Z,0.70
2023-01-18T06:32:42.546Z,1.00
2023-01-18T06:35:09.767Z,0.80
2023-01-18T06:37:36.805Z,0.80
2023-01-18T06:40:04.351Z,0.70
2023-01-18T06:42:31.966Z,0.80
2023-01-18T06:44:59.870Z,0.80
2023-01-18T06:47:27.006Z,0.70
2023-01-18T06:49:54.125Z,0.70
2023-01-18T06:52:21.291Z,0.80
2023-01-18T06:54:48.541Z,0.80
2023-01-18T06:57:15.960Z,0.80
2023-01-18T06:59:43.026Z,0.90
2023-01-18T07:02:18.135Z,0.80
2023-01-18T07:04:45.666Z,0.80
2023-01-18T07:07:14.015Z,0.90
2023-01-18T07:09:41.720Z,0.90
2023-01-18T07:12:08.734Z,0.90
2023-01-18T07:14:35.830Z,1.00
2023-01-18T07:17:02.985Z,0.90
2023-01-18T07:19:30.007Z,1.00
2023-01-18T07:21:57.825Z,1.10
2023-01-18T07:24:25.112Z,0.90
2023-01-18T07:26:52.163Z,0.90
2023-01-18T07:29:19.271Z,0.90
2023-01-18T07:31:46.631Z,0.90
2023-01-18T07:34:13.966Z,0.90
2023-01-18T07:36:42.070Z,1.00
2023-01-18T07:39:09.990Z,1.00
2023-01-18T07:41:37.699Z,1.00
2023-01-18T07:44:05.405Z,1.00
2023-01-18T07:46:32.713Z,0.90
2023-01-18T07:49:02.399Z,1.00
2023-01-18T07:51:30.721Z,1.00
2023-01-18T07:53:58.224Z,1.00
2023-01-18T07:56:26.071Z,1.00
2023-01-18T07:58:53.829Z,1.00
2023-01-18T08:01:22.895Z,1.00
2023-01-18T08:03:50.524Z,1.00
2023-01-18T08:06:25.030Z,1.10
2023-01-18T08:08:54.258Z,0.90
2023-01-18T08:11:21.409Z,1.00
2023-01-18T08:13:49.524Z,1.00
2023-01-18T08:16:16.685Z,1.00
2023-01-18T08:18:45.598Z,1.10
2023-01-18T08:21:14.037Z,1.10
2023-01-18T08:23:41.406Z,1.10
2023-01-18T08:26:10.634Z,1.10
2023-01-18T08:28:38.168Z,1.20
2023-01-18T08:31:20.958Z,1.20
2023-01-18T08:33:51.132Z,1.10
2023-01-18T08:36:21.141Z,1.20
2023-01-18T08:38:53.653Z,1.30
2023-01-18T08:41:21.273Z,1.20
2023-01-18T08:43:52.594Z,1.20
2023-01-18T08:46:20.471Z,1.10
2023-01-18T08:48:56.464Z,1.10
2023-01-18T08:51:26.120Z,1.20
2023-01-18T08:53:54.588Z,1.20
2023-01-18T08:56:21.958Z,1.20
2023-01-18T08:58:49.275Z,1.20
2023-01-18T09:01:16.444Z,1.20
2023-01-18T09:03:43.604Z,1.20
2023-01-18T09:06:13.016Z,1.30
2023-01-18T09:08:40.308Z,1.30
2023-01-18T09:11:10.422Z,1.30
2023-01-18T09:13:54.604Z,1.30
2023-01-18T09:16:26.704Z,1.20
2023-01-18T09:18:56.032Z,1.20
2023-01-18T09:21:23.213Z,1.20
2023-01-18T09:23:51.096Z,1.30
2023-01-18T09:26:20.758Z,1.40
2023-01-18T09:28:52.493Z,1.40
2023-01-18T09:31:22.787Z,1.30
2023-01-18T09:33:53.528Z,1.30
2023-01-18T09:36:26.567Z,1.30
2023-01-18T09:38:55.460Z,1.40
2023-01-18T09:41:33.310Z,1.30
2023-01-18T09:44:13.428Z,1.30
2023-01-18T09:46:42.801Z,1.30
2023-01-18T09:49:18.636Z,1.40
2023-01-18T09:52:07.300Z,1.30
2023-01-18T09:54:46.435Z,1.40
2023-01-18T09:57:39.000Z,1.40
2023-01-18T10:00:20.686Z,1.50
2023-01-18T10:02:51.913Z,1.50
2023-01-18T10:05:23.249Z,1.50
2023-01-18T10:08:14.929Z,1.40
2023-01-18T10:10:52.151Z,1.40
2023-01-18T10:13:34.143Z,1.40
2023-01-18T10:16:03.279Z,1.40
2023-01-18T10:18:30.923Z,1.50
2023-01-18T10:21:04.596Z,1.50
2023-01-18T10:23:44.798Z,1.50
2023-01-18T10:26:29.130Z,1.50
2023-01-18T10:29:15.823Z,1.60
2023-01-18T10:32:00.840Z,1.50
2023-01-18T10:34:36.232Z,1.60
2023-01-18T10:37:15.418Z,1.60
2023-01-18T10:40:05.568Z,1.60
2023-01-18T10:42:38.558Z,1.50
2023-01-18T10:45:20.442Z,1.50
2023-01-18T10:47:49.097Z,1.50
2023-01-18T10:50:34.039Z,1.50
2023-01-18T10:53:27.318Z,1.60
2023-01-18T10:56:17.482Z,1.50
2023-01-18T10:58:44.761Z,1.50
2023-01-18T11:01:17.071Z,1.50
2023-01-18T11:04:06.878Z,1.60
2023-01-18T11:07:04.442Z,1.60
2023-01-18T11:09:48.851Z,1.90
2023-01-18T11:12:52.254Z,1.70
2023-01-18T11:15:19.352Z,1.50
2023-01-18T11:18:03.118Z,1.50
2023-01-18T11:20:46.242Z,1.50
2023-01-18T11:23:41.046Z,1.60
2023-01-18T11:26:19.229Z,1.60
2023-01-18T11:29:02.123Z,1.60
2023-01-18T11:31:49.954Z,1.50
2023-01-18T11:34:26.236Z,1.50
2023-01-18T11:36:54.073Z,1.50
2023-01-18T11:39:26.843Z,1.60
2023-01-18T11:42:25.933Z,1.60
2023-01-18T11:45:04.475Z,1.60
2023-01-18T11:48:10.387Z,1.50
2023-01-18T11:50:54.267Z,1.50
2023-01-18T11:53:54.365Z,1.50
2023-01-18T11:56:30.494Z,1.40
2023-01-18T11:58:58.051Z,1.50
2023-01-18T12:01:41.925Z,1.40
2023-01-18T12:04:14.813Z,1.40
2023-01-18T12:07:07.912Z,1.40
2023-01-18T12:10:01.937Z,1.40
2023-01-18T12:13:01.490Z,1.40
2023-01-18T12:16:01.162Z,1.50
2023-01-18T12:18:48.868Z,1.40
2023-01-18T12:21:46.950Z,1.40
2023-01-18T12:24:32.389Z,1.40
2023-01-18T12:27:08.727Z,1.50
2023-01-18T12:29:55.188Z,1.70
2023-01-18T12:32:28.319Z,1.50
2023-01-18T12:35:08.093Z,1.50
2023-01-18T12:38:16.111Z,1.40
2023-01-18T12:40:43.093Z,1.40
2023-01-18T12:43:34.672Z,1.50
2023-01-18T12:46:11.487Z,1.50
2023-01-18T12:48:41.832Z,1.40
2023-01-18T12:51:15.856Z,1.50
2023-01-18T12:53:46.120Z,1.40
2023-01-18T12:56:42.314Z,1.40
2023-01-18T12:59:24.010Z,1.40
2023-01-18T13:02:06.798Z,1.40
2023-01-18T13:04:43.230Z,1.50
2023-01-18T13:07:14.611Z,1.40
2023-01-18T13:09:47.091Z,1.40
2023-01-18T13:12:14.619Z,1.50
2023-01-18T13:14:52.467Z,1.50
2023-01-18T13:17:54.955Z,1.50
2023-01-18T13:20:47.468Z,1.50
2023-01-18T13:23:38.896Z,1.50
2023-01-18T13:26:20.759Z,1.60
2023-01-18T13:28:48.240Z,1.60
2023-01-18T13:31:15.636Z,1.60
2023-01-18T13:33:48.107Z,1.60
2023-01-18T13:36:19.748Z,1.60
2023-01-18T13:38:53.350Z,1.60
2023-01-18T13:41:29.527Z,1.60
2023-01-18T13:44:01.561Z,1.60
2023-01-18T13:46:31.368Z,1.60
2023-01-18T13:49:02.507Z,1.70
2023-01-18T13:51:41.493Z,1.70
2023-01-18T13:54:10.698Z,1.70
2023-01-18T13:56:38.742Z,1.70
2023-01-18T13:59:05.937Z,1.70
2023-01-18T14:01:36.833Z,1.70
2023-01-18T14:04:22.543Z,1.70
2023-01-18T14:06:51.825Z,1.70
2023-01-18T14:09:29.481Z,1.70
2023-01-18T14:11:58.497Z,1.70
2023-01-18T14:14:29.368Z,1.70
2023-01-18T14:17:16.249Z,1.70
2023-01-18T14:19:49.138Z,1.70
2023-01-18T14:22:59.637Z,1.70
2023-01-18T14:25:51.315Z,1.70
2023-01-18T14:28:34.832Z,1.70
2023-01-18T14:31:04.901Z,1.70
2023-01-18T14:33:42.642Z,1.70
2023-01-18T14:36:27.446Z,1.80
2023-01-18T14:39:14.397Z,1.80
2023-01-18T14:41:44.505Z,1.80
2023-01-18T14:44:21.685Z,1.80
2023-01-18T14:46:51.595Z,1.80
2023-01-18T14:49:30.381Z,1.90
2023-01-18T14:51:59.586Z,1.90
2023-01-18T14:54:26.829Z,1.80
2023-01-18T14:57:05.104Z,1.90
2023-01-18T14:59:33.396Z,1.90
2023-01-18T15:02:15.985Z,1.90
2023-01-18T15:04:47.517Z,1.90
2023-01-18T15:07:24.496Z,1.90
2023-01-18T15:09:52.750Z,1.90
2023-01-18T15:12:26.586Z,1.90
2023-01-18T15:14:55.628Z,1.90
2023-01-18T15:17:25.320Z,1.90
2023-01-18T15:20:00.148Z,1.90
2023-01-18T15:22:32.612Z,1.90
2023-01-18T15:25:00.554Z,1.80
2023-01-18T15:27:32.561Z,1.80
2023-01-18T15:30:01.714Z,1.80
2023-01-18T15:32:33.614Z,1.80
2023-01-18T15:35:01.656Z,1.70
2023-01-18T15:37:33.511Z,1.70
2023-01-18T15:40:02.041Z,1.60
2023-01-18T15:42:43.546Z,1.60
2023-01-18T15:45:24.628Z,1.50
2023-01-18T15:47:54.624Z,1.40
2023-01-18T15:50:24.461Z,1.50
2023-01-18T15:53:02.217Z,1.40
2023-01-18T15:55:46.485Z,1.50
2023-01-18T15:58:15.259Z,1.40
2023-01-18T16:00:45.629Z,1.40
2023-01-18T16:03:38.093Z,1.30
2023-01-18T16:06:17.027Z,1.30
2023-01-18T16:09:10.583Z,1.30
2023-01-18T16:11:44.283Z,1.20
2023-01-18T16:14:32.542Z,1.20
2023-01-18T16:17:11.675Z,1.20
2023-01-18T16:19:54.168Z,1.10
2023-01-18T16:22:25.476Z,1.10
2023-01-18T16:25:15.301Z,1.10
2023-01-18T16:27:54.151Z,1.00
2023-01-18T16:30:32.839Z,1.00
2023-01-18T16:33:14.005Z,1.10
2023-01-18T16:35:42.081Z,1.10
2023-01-18T16:38:13.138Z,1.00
2023-01-18T16:40:44.067Z,0.80
2023-01-18T16:43:18.422Z,0.80
2023-01-18T16:45:47.865Z,0.80
2023-01-18T16:48:18.059Z,0.80
2023-01-18T16:50:45.388Z,0.70
2023-01-18T16:53:12.784Z,0.70
2023-01-18T16:55:40.374Z,0.70
2023-01-18T16:58:07.569Z,0.70
2023-01-18T17:01:00.413Z,0.60
2023-01-18T17:03:27.733Z,0.70
2023-01-18T17:05:55.564Z,0.70
2023-01-18T17:08:23.115Z,0.70
2023-01-18T17:10:51.900Z,0.70
2023-01-18T17:13:19.230Z,0.60
2023-01-18T17:15:46.336Z,0.60
2023-01-18T17:18:20.904Z,0.60
2023-01-18T17:20:48.351Z,0.60
2023-01-18T17:23:15.891Z,0.50
2023-01-18T17:25:43.036Z,0.60
2023-01-18T17:28:18.499Z,0.50
2023-01-18T17:30:48.829Z,0.50
2023-01-18T17:33:21.625Z,0.50
2023-01-18T17:35:50.386Z,0.50
2023-01-18T17:38:24.196Z,0.40
2023-01-18T17:40:52.545Z,0.50
2023-01-18T17:43:33.361Z,0.50
2023-01-18T17:46:08.172Z,0.50
2023-01-18T17:48:35.515Z,0.40
2023-01-18T17:51:13.440Z,0.40
2023-01-18T17:53:41.219Z,0.40
2023-01-18T17:56:13.234Z,0.40
2023-01-18T17:58:40.702Z,0.40
2023-01-18T18:01:10.581Z,0.40
2023-01-18T18:03:52.381Z,0.40
2023-01-18T18:06:31.476Z,0.40
2023-01-18T18:08:59.965Z,0.40
2023-01-18T18:11:27.276Z,0.40
2023-01-18T18:13:56.393Z,0.40
2023-01-18T18:16:25.465Z,0.50
2023-01-18T18:18:53.450Z,0.40
2023-01-18T18:21:23.185Z,0.50
2023-01-18T18:23:50.769Z,0.40
2023-01-18T18:26:17.942Z,0.40
2023-01-18T18:28:45.138Z,0.50
2023-01-18T18:31:16.417Z,0.50
2023-01-18T18:33:43.812Z,0.50
2023-01-18T18:36:11.045Z,0.50
2023-01-18T18:38:38.476Z,0.50
2023-01-18T18:41:06.848Z,0.50
2023-01-18T18:43:34.051Z,0.50
2023-01-18T18:46:01.668Z,0.50
2023-01-18T18:48:28.787Z,0.60
2023-01-18T18:50:56.273Z,0.60
2023-01-18T18:53:29.660Z,0.60
2023-01-18T18:56:16.122Z,0.60
2023-01-18T18:58:43.514Z,0.60
2023-01-18T19:01:36.696Z,0.70
2023-01-18T19:04:05.442Z,0.70
2023-01-18T19:06:32.808Z,0.60
2023-01-18T19:09:00.012Z,0.70
2023-01-18T19:11:29.202Z,0.70
2023-01-18T19:13:58.377Z,0.70
2023-01-18T19:16:25.879Z,0.80
2023-01-18T19:18:53.500Z,0.70
2023-01-18T19:21:20.763Z,0.80
2023-01-18T19:23:47.873Z,0.80
2023-01-18T19:26:14.996Z,0.80
2023-01-18T19:28:42.255Z,0.80
2023-01-18T19:31:09.414Z,0.80
2023-01-18T19:33:42.038Z,0.80
2023-01-18T19:36:14.589Z,0.80
2023-01-18T19:38:46.002Z,0.80
2023-01-18T19:41:15.071Z,0.80
2023-01-18T19:43:45.241Z,0.90
2023-01-18T19:46:15.191Z,0.90
2023-01-18T19:48:45.230Z,0.90
2023-01-18T19:51:21.813Z,0.90
2023-01-18T19:53:52.350Z,0.90
2023-01-18T19:56:19.587Z,0.90
2023-01-18T19:58:49.359Z,0.90
2023-01-18T20:01:34.201Z,1.00
2023-01-18T20:04:04.515Z,1.00
2023-01-18T20:06:35.259Z,1.00
2023-01-18T20:09:04.057Z,1.00
2023-01-18T20:11:32.635Z,1.00
2023-01-18T20:14:00.376Z,1.00
2023-01-18T20:16:30.385Z,1.00
2023-01-18T20:19:00.347Z,1.10
2023-01-18T20:21:27.421Z,1.10
2023-01-18T20:24:01.512Z,1.10
2023-01-18T20:26:36.447Z,1.10
2023-01-18T20:29:09.807Z,1.10
2023-01-18T20:31:38.392Z,1.10
2023-01-18T20:34:06.650Z,1.10
2023-01-18T20:36:40.128Z,1.10
2023-01-18T20:39:07.589Z,1.20
2023-01-18T20:41:34.769Z,1.20
2023-01-18T20:44:01.821Z,1.20
2023-01-18T20:46:29.170Z,1.20
2023-01-18T20:48:56.629Z,1.20
2023-01-18T20:51:24.040Z,1.30
2023-01-18T20:53:51.212Z,1.30
2023-01-18T20:56:28.800Z,1.30
2023-01-18T20:58:57.359Z,1.20
2023-01-18T21:01:33.616Z,1.20
2023-01-18T21:04:03.302Z,1.20
2023-01-18T21:06:30.988Z,1.20
2023-01-18T21:08:59.599Z,1.20
2023-01-18T21:11:27.640Z,1.20
2023-01-18T21:13:56.282Z,1.20
2023-01-18T21:16:23.937Z,1.20
2023-01-18T21:18:55.548Z,1.20
2023-01-18T21:21:23.948Z,1.20
2023-01-18T21:23:51.073Z,1.20
2023-01-18T21:26:20.135Z,1.20
2023-01-18T21:28:47.250Z,1.20
2023-01-18T21:31:14.421Z,1.20
2023-01-18T21:33:44.947Z,1.20
2023-01-18T21:36:16.093Z,1.20
2023-01-18T21:38:43.827Z,1.20
2023-01-18T21:41:30.881Z,1.30
2023-01-18T21:44:16.719Z,1.30
2023-01-18T21:46:49.052Z,1.30
2023-01-18T21:50:00.927Z,1.30
2023-01-18T21:52:40.618Z,1.30
2023-01-18T21:55:08.130Z,1.30
2023-01-18T21:57:36.759Z,1.30
2023-01-18T22:00:05.544Z,1.40
2023-01-18T22:02:36.462Z,1.40
2023-01-18T22:05:04.168Z,1.40
2023-01-18T22:07:34.247Z,1.40
2023-01-18T22:10:06.969Z,1.40
2023-01-18T22:12:36.528Z,1.40
2023-01-18T22:15:04.955Z,1.50
2023-01-18T22:17:34.148Z,1.40
2023-01-18T22:20:02.063Z,1.40
2023-01-18T22:22:31.516Z,1.40
2023-01-18T22:25:02.240Z,1.40
2023-01-18T22:27:31.926Z,1.40
2023-01-18T22:29:59.085Z,1.40
2023-01-18T22:32:27.870Z,1.40
2023-01-18T22:34:56.947Z,1.50
2023-01-18T22:37:29.938Z,1.50
2023-01-18T22:40:00.358Z,1.50
2023-01-18T22:42:30.023Z,1.50
2023-01-18T22:44:57.120Z,1.50
2023-01-18T22:47:24.472Z,1.50
2023-01-18T22:49:51.646Z,1.50
2023-01-18T22:52:18.820Z,1.40
2023-01-18T22:54:45.909Z,1.40
2023-01-18T22:57:13.093Z,1.40
2023-01-18T22:59:40.119Z,1.40
2023-01-18T23:02:10.171Z,1.40
2023-01-18T23:04:37.489Z,1.40
2023-01-18T23:07:07.059Z,1.40
2023-01-18T23:09:34.158Z,1.40
2023-01-18T23:12:01.238Z,1.40
2023-01-18T23:14:46.995Z,1.50
2023-01-18T23:17:32.884Z,1.40
2023-01-18T23:20:00.216Z,1.50
2023-01-18T23:22:27.542Z,1.50
2023-01-18T23:24:54.698Z,1.50
2023-01-18T23:27:23.846Z,1.50
2023-01-18T23:30:07.409Z,1.50
2023-01-18T23:32:37.010Z,1.50
2023-01-18T23:35:05.506Z,1.50
2023-01-18T23:37:35.230Z,1.60
2023-01-18T23:40:20.953Z,1.60
2023-01-18T23:43:07.181Z,1.60
2023-01-18T23:45:55.307Z,1.60
2023-01-18T23:48:44.961Z,1.60
2023-01-18T23:51:31.219Z,1.60
2023-01-18T23:54:16.916Z,1.60
2023-01-18T23:56:45.534Z,1.60
2023-01-18T23:59:14.017Z,1.60
